Time;durP1;ratioP1;P1;durP2;ratioP2;P2;SDS_P1;SDS_P2;PMS_P1;PMS_P2;Temp;Humidity;BMP_temperature;BMP_pressure;BME280_temperature;BME280_humidity;BME280_pressure;Samples;Min_cycle;Max_cycle;Signal;HPM_P1;HPM_P2
2023/06/01 00:00:50;;;;;;;;;;;20.70;45.00;;;;;;5097874;28;19943;-61
2023/06/01 00:03:17;;;;;;;;;;;20.70;45.00;;;;;;5108444;28;19924;-61
2023/06/01 00:05:44;;;;;;;;;;;20.70;45.10;;;;;;5092986;28;20022;-61
2023/06/01 00:08:11;;;;;;;;;;;20.70;45.00;;;;;;5093593;28;19924;-61
2023/06/01 00:10:37;;;;;;;;;;;20.70;45.00;;;;;;5108972;28;19927;-60
2023/06/01 00:13:06;;;;;;;;;;;20.70;45.00;;;;;;5107550;28;19920;-60
2023/06/01 00:15:32;;;;;;;;;;;20.70;45.10;;;;;;5092963;28;19927;-60
2023/06/01 00:18:00;;;;;;;;;;;20.70;45.10;;;;;;5093476;28;19920;-61
2023/06/01 00:20:28;;;;;;;;;;;20.70;45.10;;;;;;5126620;27;19919;-61
2023/06/01 00:22:55;;;;;;;;;;;20.70;45.10;;;;;;5094965;28;20022;-61
2023/06/01 00:25:22;;;;;;;;;;;20.70;45.10;;;;;;5092577;28;19924;-61
2023/06/01 00:27:49;;;;;;;;;;;20.70;45.10;;;;;;5090778;28;19921;-61
2023/06/01 00:30:17;;;;;;;;;;;20.70;45.10;;;;;;5094149;28;19920;-60
2023/06/01 00:32:44;;;;;;;;;;;20.60;45.00;;;;;;5102690;28;19921;-60
2023/06/01 00:35:11;;;;;;;;;;;20.60;45.00;;;;;;5091074;28;19931;-60
2023/06/01 00:37:37;;;;;;;;;;;20.60;45.00;;;;;;5108399;28;19932;-60
2023/06/01 00:40:04;;;;;;;;;;;20.60;45.00;;;;;;5109447;28;20273;-61
2023/06/01 00:42:31;;;;;;;;;;;20.60;45.00;;;;;;5107741;28;19986;-61
2023/06/01 00:44:59;;;;;;;;;;;20.60;45.00;;;;;;5090258;28;19928;-61
2023/06/01 00:47:28;;;;;;;;;;;20.60;45.00;;;;;;5092003;28;19927;-61
2023/06/01 00:49:54;;;;;;;;;;;20.60;45.00;;;;;;5073825;28;20261;-61
2023/06/01 00:52:21;;;;;;;;;;;20.60;45.10;;;;;;5092914;28;20000;-61
2023/06/01 00:54:48;;;;;;;;;;;20.60;45.00;;;;;;5091992;28;19989;-60
2023/06/01 00:57:15;;;;;;;;;;;20.60;45.10;;;;;;5108696;28;19944;-61
2023/06/01 00:59:42;;;;;;;;;;;20.60;45.10;;;;;;5082984;28;19967;-59
2023/06/01 01:02:09;;;;;;;;;;;20.60;45.10;;;;;;5091082;28;19920;-59
2023/06/01 01:04:37;;;;;;;;;;;20.60;45.10;;;;;;5092564;28;20424;-61
2023/06/01 01:07:07;;;;;;;;;;;20.60;45.00;;;;;;5090487;28;19950;-60
2023/06/01 01:09:36;;;;;;;;;;;20.60;45.00;;;;;;5090589;28;20029;-61
2023/06/01 01:12:04;;;;;;;;;;;20.60;45.00;;;;;;5093604;28;19942;-60
2023/06/01 01:14:34;;;;;;;;;;;20.60;45.00;;;;;;5095715;28;19967;-60
2023/06/01 01:17:03;;;;;;;;;;;20.60;45.00;;;;;;5086503;28;19924;-60
2023/06/01 01:19:34;;;;;;;;;;;20.60;45.00;;;;;;5095471;28;20427;-61
2023/06/01 01:22:07;;;;;;;;;;;20.60;44.90;;;;;;5090543;28;19928;-59
2023/06/01 01:24:36;;;;;;;;;;;20.60;44.90;;;;;;5074431;28;20277;-60
2023/06/01 01:27:08;;;;;;;;;;;20.60;44.90;;;;;;5097495;28;19942;-61
2023/06/01 01:29:36;;;;;;;;;;;20.60;44.90;;;;;;5099578;28;19919;-61
2023/06/01 01:32:03;;;;;;;;;;;20.60;44.90;;;;;;5092480;28;19921;-59
2023/06/01 01:34:30;;;;;;;;;;;20.50;44.80;;;;;;5086905;28;19928;-60
2023/06/01 01:36:56;;;;;;;;;;;20.60;44.80;;;;;;5106288;28;20033;-60
2023/06/01 01:39:23;;;;;;;;;;;20.50;45.30;;;;;;5110265;28;19927;-61
2023/06/01 01:41:50;;;;;;;;;;;20.50;44.60;;;;;;5110154;28;20260;-61
2023/06/01 01:44:17;;;;;;;;;;;20.50;44.60;;;;;;5109962;28;20006;-62
2023/06/01 01:46:49;;;;;;;;;;;20.50;44.50;;;;;;5108707;28;19920;-60
2023/06/01 01:49:18;;;;;;;;;;;20.50;44.50;;;;;;5108362;28;20056;-60
2023/06/01 01:51:47;;;;;;;;;;;20.50;44.50;;;;;;5092996;28;19920;-61
2023/06/01 01:54:13;;;;;;;;;;;20.50;44.40;;;;;;5094522;28;19973;-61
2023/06/01 01:56:40;;;;;;;;;;;20.50;44.50;;;;;;5093006;28;19924;-61
2023/06/01 01:59:07;;;;;;;;;;;20.50;44.40;;;;;;5108375;28;19920;-60
2023/06/01 02:01:34;;;;;;;;;;;20.50;44.40;;;;;;5094628;28;19924;-61
2023/06/01 02:04:20;;;;;;;;;;;20.50;44.40;;;;;;5093869;28;19927;-60
2023/06/01 02:06:47;;;;;;;;;;;20.50;44.40;;;;;;5108289;28;19920;-60
2023/06/01 02:09:14;;;;;;;;;;;20.50;44.40;;;;;;5091522;28;20016;-61
2023/06/01 02:11:41;;;;;;;;;;;20.50;44.30;;;;;;5109528;28;19920;-61
2023/06/01 02:14:10;;;;;;;;;;;20.50;44.30;;;;;;5090968;28;19924;-61
2023/06/01 02:16:37;;;;;;;;;;;20.50;44.40;;;;;;5092951;28;19920;-61
2023/06/01 02:19:04;;;;;;;;;;;20.50;44.30;;;;;;5091053;28;19924;-61
2023/06/01 02:21:32;;;;;;;;;;;20.40;44.30;;;;;;5091257;28;19928;-60
2023/06/01 02:24:04;;;;;;;;;;;20.50;44.40;;;;;;5093805;28;19950;-61
2023/06/01 02:26:31;;;;;;;;;;;20.40;44.30;;;;;;5110725;28;20278;-61
2023/06/01 02:28:58;;;;;;;;;;;20.40;44.30;;;;;;5090672;28;20011;-60
2023/06/01 02:31:25;;;;;;;;;;;20.40;44.30;;;;;;5090687;28;19927;-61
2023/06/01 02:33:52;;;;;;;;;;;20.40;44.20;;;;;;5110117;28;19943;-61
2023/06/01 02:36:19;;;;;;;;;;;20.40;44.20;;;;;;5093081;28;19920;-61
2023/06/01 02:38:47;;;;;;;;;;;20.40;44.20;;;;;;5091034;28;19969;-61
2023/06/01 02:41:14;;;;;;;;;;;20.40;44.20;;;;;;5091240;28;19942;-61
2023/06/01 02:43:41;;;;;;;;;;;20.40;44.20;;;;;;5107850;28;19920;-60
2023/06/01 02:46:07;;;;;;;;;;;20.40;44.20;;;;;;5109468;28;19924;-61
2023/06/01 02:48:34;;;;;;;;;;;20.40;44.20;;;;;;5109532;28;20377;-61
2023/06/01 02:51:02;;;;;;;;;;;20.40;44.20;;;;;;5091976;28;19919;-60
2023/06/01 02:53:28;;;;;;;;;;;20.40;44.20;;;;;;5092255;28;19920;-61
2023/06/01 02:55:57;;;;;;;;;;;20.40;44.20;;;;;;5089779;28;19926;-60
2023/06/01 02:58:23;;;;;;;;;;;20.40;44.20;;;;;;5110121;28;19969;-61
2023/06/01 03:00:50;;;;;;;;;;;20.40;44.20;;;;;;5106742;28;20281;-61
2023/06/01 03:03:17;;;;;;;;;;;20.40;44.20;;;;;;5107391;28;20381;-61
2023/06/01 03:05:44;;;;;;;;;;;20.40;44.20;;;;;;5109305;28;20266;-61
2023/06/01 03:08:11;;;;;;;;;;;20.40;44.20;;;;;;5092458;28;19931;-61
2023/06/01 03:10:38;;;;;;;;;;;20.40;44.20;;;;;;5109163;28;20284;-61
2023/06/01 03:13:06;;;;;;;;;;;20.40;44.20;;;;;;5093532;28;19927;-62
2023/06/01 03:15:34;;;;;;;;;;;20.40;44.20;;;;;;5106967;28;19920;-61
2023/06/01 03:18:01;;;;;;;;;;;20.40;44.20;;;;;;5095239;28;19927;-60
2023/06/01 03:20:28;;;;;;;;;;;20.40;44.20;;;;;;5094851;28;20006;-60
2023/06/01 03:22:54;;;;;;;;;;;20.40;44.20;;;;;;5113478;28;19927;-61
2023/06/01 03:25:21;;;;;;;;;;;20.40;44.20;;;;;;5094081;28;19924;-61
2023/06/01 03:27:48;;;;;;;;;;;20.40;44.20;;;;;;5094204;28;19927;-61
2023/06/01 03:30:16;;;;;;;;;;;20.40;44.20;;;;;;5095288;28;19920;-60
2023/06/01 03:32:43;;;;;;;;;;;20.40;44.20;;;;;;5082527;28;19943;-60
2023/06/01 03:35:11;;;;;;;;;;;20.40;44.20;;;;;;5092293;28;19942;-61
2023/06/01 03:37:37;;;;;;;;;;;20.40;44.20;;;;;;5092433;28;19927;-61
2023/06/01 03:40:10;;;;;;;;;;;20.40;44.20;;;;;;5075376;28;20415;-62
2023/06/01 03:42:37;;;;;;;;;;;20.40;44.10;;;;;;5075707;28;20325;-61
2023/06/01 03:45:04;;;;;;;;;;;20.40;44.20;;;;;;5094253;28;19931;-61
2023/06/01 03:47:32;;;;;;;;;;;20.40;44.20;;;;;;5095321;28;19920;-61
2023/06/01 03:49:59;;;;;;;;;;;20.40;44.20;;;;;;5094510;28;19965;-61
2023/06/01 03:52:26;;;;;;;;;;;20.40;44.20;;;;;;5093202;28;19921;-61
2023/06/01 03:54:52;;;;;;;;;;;20.40;44.20;;;;;;5092292;28;20366;-60
2023/06/01 03:57:19;;;;;;;;;;;20.40;44.20;;;;;;5099640;28;19941;-61
2023/06/01 03:59:46;;;;;;;;;;;20.40;44.10;;;;;;5096169;28;19950;-62
2023/06/01 04:02:13;;;;;;;;;;;20.40;44.10;;;;;;5092895;28;19920;-59
2023/06/01 04:04:45;;;;;;;;;;;20.30;43.90;;;;;;5109398;28;19920;-60
2023/06/01 04:07:14;;;;;;;;;;;20.30;43.90;;;;;;5111209;27;19966;-60
2023/06/01 04:09:41;;;;;;;;;;;20.30;43.90;;;;;;5092416;28;19947;-61
2023/06/01 04:12:08;;;;;;;;;;;20.30;43.90;;;;;;5111567;27;19920;-61
2023/06/01 04:14:35;;;;;;;;;;;20.30;43.80;;;;;;5109359;28;20362;-61
2023/06/01 04:17:02;;;;;;;;;;;20.30;43.80;;;;;;5092466;28;20320;-61
2023/06/01 04:19:29;;;;;;;;;;;20.30;43.80;;;;;;5108682;28;19927;-61
2023/06/01 04:21:58;;;;;;;;;;;20.30;43.80;;;;;;5087529;28;19920;-61
2023/06/01 04:24:25;;;;;;;;;;;20.30;43.80;;;;;;5092765;28;19924;-61
2023/06/01 04:26:51;;;;;;;;;;;20.30;43.80;;;;;;5108501;28;19924;-59
2023/06/01 04:29:19;;;;;;;;;;;20.30;43.80;;;;;;5109288;28;19927;-61
2023/06/01 04:31:46;;;;;;;;;;;20.30;43.70;;;;;;5093163;28;19989;-61
2023/06/01 04:34:12;;;;;;;;;;;20.30;43.70;;;;;;5095644;28;19927;-61
2023/06/01 04:36:40;;;;;;;;;;;20.30;43.70;;;;;;5094740;28;19926;-61
2023/06/01 04:39:08;;;;;;;;;;;20.30;43.60;;;;;;5092497;28;19924;-61
2023/06/01 04:41:35;;;;;;;;;;;20.30;43.60;;;;;;5093551;28;19924;-61
2023/06/01 04:44:05;;;;;;;;;;;20.30;43.70;;;;;;5092830;28;20304;-61
2023/06/01 04:46:32;;;;;;;;;;;20.30;43.70;;;;;;5111528;28;19927;-61
2023/06/01 04:49:00;;;;;;;;;;;20.30;43.60;;;;;;5109438;28;19959;-62
2023/06/01 04:51:28;;;;;;;;;;;20.20;43.50;;;;;;5093593;28;19920;-61
2023/06/01 04:53:55;;;;;;;;;;;20.30;43.60;;;;;;5110711;28;19978;-61
2023/06/01 04:56:25;;;;;;;;;;;20.30;43.70;;;;;;5092145;28;19920;-61
2023/06/01 04:58:51;;;;;;;;;;;20.20;43.50;;;;;;5094907;28;19961;-61
2023/06/01 05:01:18;;;;;;;;;;;20.30;43.60;;;;;;5093872;28;19975;-61
2023/06/01 05:03:45;;;;;;;;;;;20.20;43.50;;;;;;5095469;28;19931;-61
2023/06/01 05:06:12;;;;;;;;;;;20.20;43.40;;;;;;5093943;28;20392;-61
2023/06/01 05:08:39;;;;;;;;;;;20.20;43.50;;;;;;5093845;28;19920;-61
2023/06/01 05:11:06;;;;;;;;;;;20.20;43.50;;;;;;5094268;28;19965;-62
2023/06/01 05:13:35;;;;;;;;;;;20.20;43.50;;;;;;5093797;28;19971;-60
2023/06/01 05:16:01;;;;;;;;;;;20.20;43.50;;;;;;5093677;28;19967;-60
2023/06/01 05:18:28;;;;;;;;;;;20.20;43.50;;;;;;5094254;28;19953;-60
2023/06/01 05:20:55;;;;;;;;;;;20.20;43.50;;;;;;5091522;28;19932;-61
2023/06/01 05:23:22;;;;;;;;;;;20.20;43.50;;;;;;5094732;28;19921;-60
2023/06/01 05:25:48;;;;;;;;;;;20.20;43.50;;;;;;5093405;28;19920;-61
2023/06/01 05:28:15;;;;;;;;;;;20.20;43.60;;;;;;5093394;28;19924;-62
2023/06/01 05:30:43;;;;;;;;;;;20.20;43.60;;;;;;5095192;28;19965;-61
2023/06/01 05:33:10;;;;;;;;;;;20.20;43.60;;;;;;5109823;28;19927;-61
2023/06/01 05:35:37;;;;;;;;;;;20.20;43.60;;;;;;5093777;28;20247;-61
2023/06/01 05:38:04;;;;;;;;;;;20.20;43.60;;;;;;5093215;28;20346;-62
2023/06/01 05:40:31;;;;;;;;;;;20.20;43.70;;;;;;5108338;28;19924;-62
2023/06/01 05:42:57;;;;;;;;;;;20.20;43.70;;;;;;5110131;28;19966;-61
2023/06/01 05:45:24;;;;;;;;;;;20.20;43.80;;;;;;5094494;28;19965;-61
2023/06/01 05:47:52;;;;;;;;;;;20.20;43.80;;;;;;5093510;28;20006;-61
2023/06/01 05:50:19;;;;;;;;;;;20.20;43.80;;;;;;5103668;28;19919;-62
2023/06/01 05:52:46;;;;;;;;;;;20.20;43.90;;;;;;5114906;28;19965;-60
2023/06/01 05:55:12;;;;;;;;;;;20.20;43.80;;;;;;5094040;28;19924;-61
2023/06/01 05:57:40;;;;;;;;;;;20.20;43.90;;;;;;5091778;28;19920;-61
2023/06/01 06:00:09;;;;;;;;;;;20.20;43.80;;;;;;5109745;28;19928;-60
2023/06/01 06:02:36;;;;;;;;;;;20.20;43.90;;;;;;5093822;28;19970;-61
2023/06/01 06:05:05;;;;;;;;;;;20.20;43.80;;;;;;5094135;28;19927;-62
2023/06/01 06:07:32;;;;;;;;;;;20.20;43.70;;;;;;5108972;28;19927;-61
2023/06/01 06:09:59;;;;;;;;;;;20.20;43.60;;;;;;5092596;28;19920;-61
2023/06/01 06:12:26;;;;;;;;;;;20.20;43.60;;;;;;5109964;28;19924;-62
2023/06/01 06:14:53;;;;;;;;;;;20.20;43.60;;;;;;5094047;28;19958;-62
2023/06/01 06:17:20;;;;;;;;;;;20.10;43.50;;;;;;5091095;28;19920;-62
2023/06/01 06:19:47;;;;;;;;;;;20.10;43.40;;;;;;5093953;28;20011;-60
2023/06/01 06:22:15;;;;;;;;;;;20.10;43.40;;;;;;5092408;28;20006;-61
2023/06/01 06:24:42;;;;;;;;;;;20.10;43.40;;;;;;5110535;28;19927;-61
2023/06/01 06:27:10;;;;;;;;;;;20.10;43.50;;;;;;5093671;28;19961;-61
2023/06/01 06:29:36;;;;;;;;;;;20.10;43.40;;;;;;5094137;28;19928;-60
2023/06/01 06:32:04;;;;;;;;;;;20.10;43.40;;;;;;5092554;28;20450;-62
2023/06/01 06:34:35;;;;;;;;;;;20.10;43.40;;;;;;5110423;28;19928;-62
2023/06/01 06:37:03;;;;;;;;;;;20.10;43.80;;;;;;5092790;28;20080;-65
2023/06/01 06:39:31;;;;;;;;;;;20.10;43.50;;;;;;5092933;28;19924;-63
2023/06/01 06:41:58;;;;;;;;;;;20.10;43.50;;;;;;5092726;28;19949;-63
2023/06/01 06:44:26;;;;;;;;;;;20.10;43.50;;;;;;5089531;28;20275;-62
2023/06/01 06:46:53;;;;;;;;;;;20.10;43.50;;;;;;5089173;28;19920;-62
2023/06/01 06:49:19;;;;;;;;;;;20.10;43.50;;;;;;5091270;28;20364;-62
2023/06/01 06:51:47;;;;;;;;;;;20.10;43.50;;;;;;5092173;28;19958;-63
2023/06/01 06:54:13;;;;;;;;;;;20.20;43.50;;;;;;5092759;28;20433;-60
2023/06/01 06:56:41;;;;;;;;;;;20.10;43.40;;;;;;5096422;28;19977;-64
2023/06/01 06:59:09;;;;;;;;;;;20.20;43.50;;;;;;5093103;28;19961;-63
2023/06/01 07:01:37;;;;;;;;;;;20.20;43.50;;;;;;5111372;28;19924;-63
2023/06/01 07:04:04;;;;;;;;;;;20.20;43.50;;;;;;5083848;28;20352;-61
2023/06/01 07:06:32;;;;;;;;;;;20.20;43.50;;;;;;5092496;28;19920;-63
2023/06/01 07:08:58;;;;;;;;;;;20.20;43.50;;;;;;5114183;28;19920;-64
2023/06/01 07:11:26;;;;;;;;;;;20.20;43.70;;;;;;5093401;28;20410;-63
2023/06/01 07:13:57;;;;;;;;;;;20.20;43.50;;;;;;5099902;28;19977;-65
2023/06/01 07:16:24;;;;;;;;;;;20.20;43.50;;;;;;5110223;28;20358;-64
2023/06/01 07:18:50;;;;;;;;;;;20.20;43.50;;;;;;5115545;27;19970;-57
2023/06/01 07:21:17;;;;;;;;;;;20.20;43.40;;;;;;5092934;28;19928;-64
2023/06/01 07:23:44;;;;;;;;;;;20.20;43.40;;;;;;5092551;28;19969;-62
2023/06/01 07:26:11;;;;;;;;;;;20.20;43.30;;;;;;5094007;28;19927;-62
2023/06/01 07:28:38;;;;;;;;;;;20.20;43.30;;;;;;5094006;28;19920;-63
2023/06/01 07:31:07;;;;;;;;;;;20.20;43.30;;;;;;5091681;28;19920;-62
2023/06/01 07:33:35;;;;;;;;;;;20.20;43.30;;;;;;5109211;28;19924;-63
2023/06/01 07:36:03;;;;;;;;;;;20.20;43.30;;;;;;5092973;28;19965;-63
2023/06/01 07:38:30;;;;;;;;;;;20.20;43.30;;;;;;5092125;28;19920;-65
2023/06/01 07:40:56;;;;;;;;;;;20.20;43.30;;;;;;5093948;28;19965;-63
2023/06/01 07:43:23;;;;;;;;;;;20.20;43.30;;;;;;5092784;28;19927;-63
2023/06/01 07:45:50;;;;;;;;;;;20.20;43.30;;;;;;5110286;28;19924;-62
2023/06/01 07:48:18;;;;;;;;;;;20.20;43.30;;;;;;5106106;28;19927;-64
2023/06/01 07:50:46;;;;;;;;;;;20.20;43.30;;;;;;5093971;28;19919;-64
2023/06/01 07:53:13;;;;;;;;;;;20.20;43.30;;;;;;5092118;28;19959;-64
2023/06/01 07:55:40;;;;;;;;;;;20.20;43.30;;;;;;5108310;28;20307;-63
2023/06/01 07:58:06;;;;;;;;;;;20.20;43.30;;;;;;5092807;28;19978;-65
2023/06/01 08:00:33;;;;;;;;;;;20.20;43.40;;;;;;5110867;28;19927;-62
2023/06/01 08:03:05;;;;;;;;;;;20.20;43.40;;;;;;5107132;28;19920;-64
2023/06/01 08:05:35;;;;;;;;;;;20.20;43.30;;;;;;5112615;28;19924;-64
2023/06/01 08:08:02;;;;;;;;;;;20.20;43.30;;;;;;5095138;28;20282;-63
2023/06/01 08:10:29;;;;;;;;;;;20.20;43.30;;;;;;5112600;28;19942;-62
2023/06/01 08:12:57;;;;;;;;;;;20.30;43.30;;;;;;5109996;28;19943;-63
2023/06/01 08:15:25;;;;;;;;;;;20.30;43.30;;;;;;5111563;28;20423;-62
2023/06/01 08:17:52;;;;;;;;;;;20.30;43.30;;;;;;5110412;28;19968;-62
2023/06/01 08:20:21;;;;;;;;;;;20.30;43.30;;;;;;5094593;28;19920;-63
2023/06/01 08:22:49;;;;;;;;;;;20.30;43.20;;;;;;5095249;28;19920;-63
2023/06/01 08:25:16;;;;;;;;;;;20.30;43.30;;;;;;5112287;28;20416;-63
2023/06/01 08:27:43;;;;;;;;;;;20.30;43.20;;;;;;5093047;28;19920;-62
2023/06/01 08:30:10;;;;;;;;;;;20.30;43.30;;;;;;5092738;28;19927;-62
2023/06/01 08:32:37;;;;;;;;;;;20.30;43.80;;;;;;5111162;28;20018;-63
2023/06/01 08:35:05;;;;;;;;;;;20.30;43.30;;;;;;5093364;28;19920;-63
2023/06/01 08:37:31;;;;;;;;;;;20.30;43.30;;;;;;5110031;28;19920;-62
2023/06/01 08:40:00;;;;;;;;;;;20.30;43.30;;;;;;5095896;28;19959;-63
2023/06/01 08:42:31;;;;;;;;;;;20.30;43.30;;;;;;5108030;28;20031;-63
2023/06/01 08:44:58;;;;;;;;;;;20.30;43.30;;;;;;5093821;28;20274;-64
2023/06/01 08:47:25;;;;;;;;;;;20.30;43.30;;;;;;5091415;28;19927;-63
2023/06/01 08:49:51;;;;;;;;;;;20.30;43.30;;;;;;5094407;28;19927;-64
2023/06/01 08:52:20;;;;;;;;;;;20.30;43.20;;;;;;5093555;28;19920;-63
2023/06/01 08:54:47;;;;;;;;;;;20.30;43.20;;;;;;5092825;28;19928;-63
2023/06/01 08:57:15;;;;;;;;;;;20.30;43.20;;;;;;5077712;28;19920;-63
2023/06/01 08:59:43;;;;;;;;;;;20.30;43.20;;;;;;5109506;28;19920;-64
2023/06/01 09:02:09;;;;;;;;;;;20.20;43.10;;;;;;5107148;28;19927;-63
2023/06/01 09:04:41;;;;;;;;;;;20.30;43.20;;;;;;5110874;28;19966;-64
2023/06/01 09:07:10;;;;;;;;;;;20.30;43.80;;;;;;5092987;28;20528;-65
2023/06/01 09:09:36;;;;;;;;;;;20.20;43.20;;;;;;5092969;28;20097;-60
2023/06/01 09:12:20;;;;;;;;;;;20.20;43.20;;;;;;5111261;28;20234;-62
2023/06/01 09:14:47;;;;;;;;;;;20.20;43.30;;;;;;5093824;28;19923;-63
2023/06/01 09:17:14;;;;;;;;;;;20.20;43.90;;;;;;5110342;28;19973;-62
2023/06/01 09:19:41;;;;;;;;;;;20.20;43.30;;;;;;5094933;28;19967;-63
2023/06/01 09:22:08;;;;;;;;;;;20.20;43.30;;;;;;5094120;28;19965;-63
2023/06/01 09:24:35;;;;;;;;;;;20.30;43.40;;;;;;5090977;28;19927;-64
2023/06/01 09:27:02;;;;;;;;;;;20.30;43.40;;;;;;5108172;28;19920;-63
2023/06/01 09:29:30;;;;;;;;;;;20.30;43.40;;;;;;5093900;28;19920;-63
2023/06/01 09:31:56;;;;;;;;;;;20.30;43.50;;;;;;5093350;28;19952;-63
2023/06/01 09:34:23;;;;;;;;;;;20.30;43.50;;;;;;5091820;28;19927;-64
2023/06/01 09:36:50;;;;;;;;;;;20.30;43.50;;;;;;5092136;28;19927;-62
2023/06/01 09:39:17;;;;;;;;;;;20.30;43.50;;;;;;5091525;28;19931;-63
2023/06/01 09:41:51;;;;;;;;;;;20.30;43.50;;;;;;5090321;28;20328;-65
2023/06/01 09:44:25;;;;;;;;;;;20.30;43.50;;;;;;5110666;28;19920;-66
2023/06/01 09:46:53;;;;;;;;;;;20.30;43.60;;;;;;5094541;28;19923;-61
2023/06/01 09:49:21;;;;;;;;;;;20.30;43.50;;;;;;5110632;28;19920;-62
2023/06/01 09:51:48;;;;;;;;;;;20.30;43.50;;;;;;5109962;28;20015;-63
2023/06/01 09:54:27;;;;;;;;;;;20.30;43.40;;;;;;5092168;28;19920;-62
2023/06/01 09:56:54;;;;;;;;;;;20.30;43.40;;;;;;5090531;28;19927;-61
2023/06/01 09:59:21;;;;;;;;;;;20.30;43.40;;;;;;5092930;28;19920;-61
2023/06/01 10:01:49;;;;;;;;;;;20.30;43.40;;;;;;5108655;28;19923;-62
2023/06/01 10:04:17;;;;;;;;;;;20.30;43.40;;;;;;5094229;28;19926;-63
2023/06/01 10:06:44;;;;;;;;;;;20.30;44.00;;;;;;5109870;28;19920;-64
2023/06/01 10:09:14;;;;;;;;;;;20.30;43.40;;;;;;5094022;28;19920;-63
2023/06/01 10:11:40;;;;;;;;;;;20.40;43.50;;;;;;5109996;28;19967;-63
2023/06/01 10:14:07;;;;;;;;;;;20.40;43.50;;;;;;5091962;28;20333;-62
2023/06/01 10:16:34;;;;;;;;;;;20.40;43.40;;;;;;5093005;28;20358;-63
2023/06/01 10:19:01;;;;;;;;;;;20.40;43.40;;;;;;5112738;28;19920;-62
2023/06/01 10:21:29;;;;;;;;;;;20.40;43.40;;;;;;5113996;28;19970;-62
2023/06/01 10:23:56;;;;;;;;;;;20.40;43.40;;;;;;5094499;28;19920;-63
2023/06/01 10:26:23;;;;;;;;;;;20.40;43.30;;;;;;5111291;28;19927;-62
2023/06/01 10:28:50;;;;;;;;;;;20.40;43.90;;;;;;5113290;28;19920;-62
2023/06/01 10:31:35;;;;;;;;;;;20.40;43.40;;;;;;5097685;28;19927;-62
2023/06/01 10:34:02;;;;;;;;;;;20.40;43.30;;;;;;5098643;28;19927;-62
2023/06/01 10:36:56;;;;;;;;;;;20.40;43.30;;;;;;5098598;28;19920;-62
2023/06/01 10:39:24;;;;;;;;;;;20.40;43.40;;;;;;5071655;28;19977;-62
2023/06/01 10:41:51;;;;;;;;;;;20.40;43.30;;;;;;5096763;28;19920;-61
2023/06/01 10:44:33;;;;;;;;;;;20.40;43.30;;;;;;5116621;28;19928;-62
2023/06/01 10:46:59;;;;;;;;;;;20.40;43.30;;;;;;5095496;28;20005;-61
2023/06/01 10:49:28;;;;;;;;;;;20.40;43.30;;;;;;5113682;28;19920;-62
2023/06/01 10:52:09;;;;;;;;;;;20.40;43.30;;;;;;5096357;28;19920;-62
2023/06/01 10:54:38;;;;;;;;;;;20.40;43.30;;;;;;5111475;28;20259;-62
2023/06/01 10:57:21;;;;;;;;;;;20.40;43.40;;;;;;5094779;28;19920;-61
2023/06/01 11:00:10;;;;;;;;;;;20.40;43.40;;;;;;5098599;28;19959;-62
2023/06/01 11:02:42;;;;;;;;;;;20.40;43.40;;;;;;5114013;28;19920;-62
2023/06/01 11:05:28;;;;;;;;;;;20.40;43.40;;;;;;5112676;28;19920;-62
2023/06/01 11:07:55;;;;;;;;;;;20.40;43.40;;;;;;5104632;28;20340;-64
2023/06/01 11:10:37;;;;;;;;;;;20.40;43.50;;;;;;5111643;28;19974;-63
2023/06/01 11:13:17;;;;;;;;;;;20.40;43.50;;;;;;5108066;28;20430;-63
2023/06/01 11:16:00;;;;;;;;;;;20.40;43.50;;;;;;5093482;28;19920;-63
2023/06/01 11:18:43;;;;;;;;;;;20.40;43.50;;;;;;5092065;28;19970;-63
2023/06/01 11:21:10;;;;;;;;;;;20.40;43.50;;;;;;5095527;28;19966;-63
2023/06/01 11:23:38;;;;;;;;;;;20.40;43.40;;;;;;5096229;28;20249;-62
2023/06/01 11:26:06;;;;;;;;;;;20.40;43.40;;;;;;5112859;28;20308;-63
2023/06/01 11:28:35;;;;;;;;;;;20.40;43.40;;;;;;5097013;28;20398;-63
2023/06/01 11:31:01;;;;;;;;;;;20.40;43.40;;;;;;5096018;28;19920;-63
2023/06/01 11:33:29;;;;;;;;;;;20.40;43.50;;;;;;5093761;28;19920;-64
2023/06/01 11:35:58;;;;;;;;;;;20.40;43.50;;;;;;5095418;28;19927;-63
2023/06/01 11:38:25;;;;;;;;;;;20.40;43.50;;;;;;5095818;28;19920;-63
2023/06/01 11:41:01;;;;;;;;;;;20.40;43.40;;;;;;5110244;28;20370;-62
2023/06/01 11:43:28;;;;;;;;;;;20.40;43.40;;;;;;5113221;28;19927;-63
2023/06/01 11:46:02;;;;;;;;;;;20.40;43.40;;;;;;5093598;28;19966;-62
2023/06/01 11:48:29;;;;;;;;;;;20.40;43.40;;;;;;5092202;28;19965;-62
2023/06/01 11:50:56;;;;;;;;;;;20.40;43.40;;;;;;5109031;28;19926;-63
2023/06/01 11:53:22;;;;;;;;;;;20.40;43.30;;;;;;5095217;28;19927;-63
2023/06/01 11:55:49;;;;;;;;;;;20.40;43.40;;;;;;5096566;28;19970;-63
2023/06/01 11:58:20;;;;;;;;;;;20.40;43.40;;;;;;5110449;28;19926;-62
2023/06/01 12:00:47;;;;;;;;;;;20.40;43.30;;;;;;5111753;28;19927;-62
2023/06/01 12:03:16;;;;;;;;;;;20.40;43.30;;;;;;5107174;28;19924;-62
2023/06/01 12:05:45;;;;;;;;;;;20.40;43.30;;;;;;5110005;28;19931;-65
2023/06/01 12:08:13;;;;;;;;;;;20.40;43.40;;;;;;5109247;28;19983;-65
2023/06/01 12:10:41;;;;;;;;;;;20.50;43.40;;;;;;5110378;28;19920;-65
2023/06/01 12:13:08;;;;;;;;;;;20.40;43.20;;;;;;5112671;28;20011;-64
2023/06/01 12:15:35;;;;;;;;;;;20.40;43.20;;;;;;5093652;28;19920;-65
2023/06/01 12:18:01;;;;;;;;;;;20.40;43.20;;;;;;5107945;28;19945;-64
2023/06/01 12:20:30;;;;;;;;;;;20.40;43.20;;;;;;5092349;28;19920;-63
2023/06/01 12:22:57;;;;;;;;;;;20.40;43.20;;;;;;5094406;28;19981;-65
2023/06/01 12:25:24;;;;;;;;;;;20.40;43.20;;;;;;5092909;28;19920;-64
2023/06/01 12:28:00;;;;;;;;;;;20.40;43.30;;;;;;5111749;28;19949;-64
2023/06/01 12:30:27;;;;;;;;;;;20.40;43.20;;;;;;5092602;28;19973;-64
2023/06/01 12:32:54;;;;;;;;;;;20.40;43.20;;;;;;5106671;28;19973;-62
2023/06/01 12:35:23;;;;;;;;;;;20.40;43.20;;;;;;5091798;28;19920;-65
2023/06/01 12:38:04;;;;;;;;;;;20.40;43.30;;;;;;5088726;28;20031;-64
2023/06/01 12:40:31;;;;;;;;;;;20.40;43.20;;;;;;5110263;28;19924;-64
2023/06/01 12:42:58;;;;;;;;;;;20.40;43.20;;;;;;5094310;28;20389;-63
2023/06/01 12:45:24;;;;;;;;;;;20.40;43.20;;;;;;5109450;28;19981;-63
2023/06/01 12:47:51;;;;;;;;;;;20.50;43.30;;;;;;5095779;28;19920;-63
2023/06/01 12:50:18;;;;;;;;;;;20.50;43.30;;;;;;5112093;28;19926;-64
2023/06/01 12:52:45;;;;;;;;;;;20.40;43.20;;;;;;5110765;28;19920;-64
2023/06/01 12:55:14;;;;;;;;;;;20.50;43.30;;;;;;5111574;28;19920;-64
2023/06/01 12:57:43;;;;;;;;;;;20.50;43.30;;;;;;5111083;28;20009;-65
2023/06/01 13:00:11;;;;;;;;;;;20.50;43.40;;;;;;5095283;28;20279;-66
2023/06/01 13:02:38;;;;;;;;;;;20.50;43.40;;;;;;5095817;28;19920;-65
2023/06/01 13:05:05;;;;;;;;;;;20.50;43.40;;;;;;5111192;28;20040;-67
2023/06/01 13:07:32;;;;;;;;;;;20.50;43.40;;;;;;5111016;28;19924;-64
2023/06/01 13:10:00;;;;;;;;;;;20.50;43.40;;;;;;5110731;28;19969;-64
2023/06/01 13:12:28;;;;;;;;;;;20.50;43.40;;;;;;5094758;28;19989;-63
2023/06/01 13:14:55;;;;;;;;;;;20.50;43.30;;;;;;5110325;28;19924;-63
2023/06/01 13:17:22;;;;;;;;;;;20.50;43.30;;;;;;5108850;28;19927;-63
2023/06/01 13:19:49;;;;;;;;;;;20.50;43.30;;;;;;5094545;28;19920;-62
2023/06/01 13:22:16;;;;;;;;;;;20.50;43.30;;;;;;5110622;28;19920;-62
2023/06/01 13:24:43;;;;;;;;;;;20.50;43.30;;;;;;5110472;28;19920;-63
2023/06/01 13:27:10;;;;;;;;;;;20.50;43.30;;;;;;5092464;28;19920;-62
2023/06/01 13:29:38;;;;;;;;;;;20.50;43.30;;;;;;5093673;28;19920;-62
2023/06/01 13:32:05;;;;;;;;;;;20.50;43.20;;;;;;5110196;28;19966;-62
2023/06/01 13:34:31;;;;;;;;;;;20.50;43.10;;;;;;5093445;28;19920;-63
2023/06/01 13:36:58;;;;;;;;;;;20.50;42.90;;;;;;5108430;28;20370;-64
2023/06/01 13:39:25;;;;;;;;;;;20.50;42.90;;;;;;5108472;28;19920;-63
2023/06/01 13:41:52;;;;;;;;;;;20.50;42.90;;;;;;5108667;28;19920;-64
2023/06/01 13:44:19;;;;;;;;;;;20.40;42.90;;;;;;5094484;28;19920;-63
2023/06/01 13:46:47;;;;;;;;;;;20.40;42.90;;;;;;5094670;28;20019;-62
2023/06/01 13:49:14;;;;;;;;;;;20.40;43.00;;;;;;5108856;28;19924;-63
2023/06/01 13:51:40;;;;;;;;;;;20.40;43.00;;;;;;5091748;28;20354;-63
2023/06/01 13:54:07;;;;;;;;;;;20.40;43.00;;;;;;5105697;28;19927;-63
2023/06/01 13:56:34;;;;;;;;;;;20.40;43.00;;;;;;5089833;28;19966;-62
2023/06/01 13:59:00;;;;;;;;;;;20.40;43.10;;;;;;5091998;28;19977;-63
2023/06/01 14:01:27;;;;;;;;;;;20.40;43.10;;;;;;5105714;28;19924;-63
2023/06/01 14:03:55;;;;;;;;;;;20.40;43.10;;;;;;5089511;28;19939;-62
2023/06/01 14:06:22;;;;;;;;;;;20.40;43.10;;;;;;5107221;28;19920;-61
2023/06/01 14:08:49;;;;;;;;;;;20.40;43.10;;;;;;5106925;28;19924;-62
2023/06/01 14:11:16;;;;;;;;;;;20.40;43.00;;;;;;5106835;28;19920;-63
2023/06/01 14:13:43;;;;;;;;;;;20.50;43.00;;;;;;5091798;28;19920;-62
2023/06/01 14:16:10;;;;;;;;;;;20.50;43.10;;;;;;5092311;28;19928;-62
2023/06/01 14:18:36;;;;;;;;;;;20.50;43.10;;;;;;5106173;28;20263;-61
2023/06/01 14:21:05;;;;;;;;;;;20.50;43.10;;;;;;5092240;28;19921;-65